Latest Weather Observations for Cessnock Airport

IDN60801

Issued at 11:35 am EDT Monday 24 November 2014 (issued every 30 minutes, with the page automatically refreshed every 10 minutes)

About weather observations | Map of weather stations | Latest weather observations for NSW | Other Formats
Station Details ID: 061260 Name: CESSNOCK AIRPORT AWS Lat: -32.79 Lon: 151.34 Height: 61.0 m
Data from the previous 72 hours. | See also: Recent months at Cessnock Airport
Date/Time
EDT
Temp
°C
App
Temp
°C
Dew
Point
Rel
Hum
%
Delta-T
°C
Wind Press
QNH
hPa
Press
MSL
hPa
Rain
since 9 am
mm
Dir
 
Spd
km/h
Gust
km/h
Spd
kts
Gust
kts
24/11:30am 31.6 31.4 16.7 40 9.4 E 13 22 7 12 1011.2 1011.0 0.0
24/11:00am 31.4 31.3 16.9 41 9.2 ENE 13 20 7 11 1011.7 1011.5 0.0
24/10:30am 29.8 29.7 16.9 45 8.1 E 13 17 7 9 1012.1 1011.9 0.0
24/10:00am 30.4 31.3 17.5 46 8.2 ENE 9 17 5 9 1012.5 1012.3 0.0
24/09:30am 28.7 29.3 17.6 51 7.0 SE 11 17 6 9 1013.1 1012.9 0.0
24/09:00am 26.8 27.2 17.3 56 6.0 SE 11 17 6 9 1013.1 1012.9 0.0
24/08:30am 26.3 27.2 17.6 58 5.5 SSE 9 11 5 6 1013.2 1013.0 0.0
24/08:00am 25.4 25.8 17.3 61 5.1 S 11 15 6 8 1013.2 1013.0 0.0
24/07:30am 24.6 26.1 18.1 67 4.1 SSE 7 9 4 5 1013.1 1012.9 0.0
24/07:00am 23.1 24.9 18.8 77 2.7 SW 7 9 4 5 1013.1 1012.9 0.0
24/06:30am 21.5 24.2 20.3 93 0.8 SSW 6 9 3 5 1012.6 1012.4 0.0
24/06:00am 21.0 23.3 19.8 93 0.8 S 7 9 4 5 1012.7 1012.5 0.0
24/05:30am 21.3 23.4 20.1 93 0.8 S 9 15 5 8 1012.7 1012.5 0.0
24/05:00am 21.6 23.3 19.3 87 1.5 E 9 15 5 8 1012.8 1012.6 0.0
24/04:30am 22.1 23.3 18.3 79 2.4 ESE 9 20 5 11 1012.1 1011.9 0.0
24/04:00am 23.7 24.1 17.2 67 4.0 ENE 11 19 6 10 1011.8 1011.6 0.0
24/03:30am 25.1 25.0 16.0 57 5.6 E 11 17 6 9 1011.0 1010.8 0.0
24/03:00am 23.9 24.3 16.4 63 4.6 N 9 15 5 8 1010.5 1010.3 0.0
24/02:30am 23.8 24.8 16.8 65 4.3 E 7 11 4 6 1010.5 1010.3 0.0
24/02:00am 23.4 24.5 16.7 66 4.1 SSW 6 7 3 4 1011.1 1010.9 0.0
24/01:30am 24.3 24.1 16.6 62 4.7 SW 13 15 7 8 1011.8 1011.6 0.0
24/01:00am 23.7 24.4 17.0 66 4.1 WSW 9 17 5 9 1012.4 1012.2 0.0
24/12:30am 25.4 26.1 16.0 56 5.8 SE 7 11 4 6 1012.7 1012.5 0.0
24/12:00am 26.3 26.0 15.4 51 6.6 S 11 15 6 8 1013.2 1013.0 0.0
 
Date/Time
EDT
Temp
°C
App
Temp
°C
Dew
Point
Rel
Hum
%
Delta-T
°C
Wind Press
QNH
hPa
Press
MSL
hPa
Rain
since 9 am
mm
Dir
 
Spd
km/h
Gust
km/h
Spd
kts
Gust
kts
23/11:30pm 27.9 27.8 13.8 42 8.4 S 7 11 4 6 1013.0 1012.8 0.0
23/11:00pm 28.7 28.4 14.5 42 8.6 ENE 9 15 5 8 1013.0 1012.8 0.0
23/10:30pm 27.1 27.8 15.5 49 7.1 WSW 6 7 3 4 1013.3 1013.1 0.0
23/10:00pm 29.5 27.7 13.3 37 9.7 SSW 15 19 8 10 1013.0 1012.8 0.0
23/09:30pm 30.1 26.9 13.0 35 10.2 SW 22 33 12 18 1011.7 1011.5 0.0
23/09:00pm 30.3 28.9 12.2 33 10.6 E 11 20 6 11 1009.9 1009.7 0.0
23/08:30pm 30.5 27.1 12.4 33 10.7 E 22 33 12 18 1009.3 1009.1 0.0
23/08:00pm 30.4 28.0 13.7 36 10.1 SE 19 24 10 13 1009.8 1009.6 0.0
23/07:30pm 30.2 29.5 15.5 41 9.1 S 13 20 7 11 1009.0 1008.8 0.0
23/07:00pm 33.4 31.5 11.9 27 12.8 E 13 24 7 13 1007.6 1007.4 0.0
23/06:30pm 32.6 28.4 12.3 29 12.1 S 26 33 14 18 1007.9 1007.7 0.0
23/06:24pm 32.7 29.4 12.9 30 11.9 SW 22 41 12 22 1008.2 1008.0 0.0
23/06:00pm 37.9 31.5 6.8 15 17.4 S 30 43 16 23 1006.4 1006.2 0.0
23/05:58pm 38.0 32.2 7.8 16 17.2 S 28 39 15 21 1006.4 1006.2 0.0
23/05:30pm 41.3 38.1 4.9 11 20.1 N 11 15 6 8 1005.3 1005.2 0.0
23/05:00pm 43.2 38.3 5.0 10 21.4 NW 20 32 11 17 1005.1 1005.0 0.0
23/04:30pm 42.3 38.2 4.3 10 20.9 NW 15 22 8 12 1005.4 1005.3 0.0
23/04:00pm 43.8 40.3 5.5 10 21.7 NNW 13 22 7 12 1005.5 1005.4 0.0
23/03:30pm 43.6 38.4 5.3 10 21.5 NW 22 33 12 18 1006.1 1005.9 0.0
23/03:00pm 43.3 40.3 7.7 12 20.7 N 13 20 7 11 1006.7 1006.5 0.0
23/02:30pm 42.7 38.0 6.0 11 20.7 NW 20 28 11 15 1007.4 1007.2 0.0
23/02:00pm 42.1 37.8 8.0 13 19.8 NNW 20 33 11 18 1007.9 1007.7 0.0
23/01:30pm 41.8 37.8 6.6 12 20.0 NNW 17 32 9 17 1008.5 1008.3 0.0
23/01:00pm 41.2 39.7 10.4 16 18.4 NNE 9 17 5 9 1009.0 1008.8 0.0
23/12:30pm 39.6 37.8 13.2 21 16.3 NW 15 26 8 14 1009.6 1009.4 0.0
23/12:00pm 37.9 35.2 11.8 21 15.7 NW 17 24 9 13 1010.0 1009.8 0.0
23/11:30am 37.2 35.8 14.5 26 14.2 NNW 15 22 8 12 1010.5 1010.3 0.0
23/11:00am 35.0 34.1 14.8 29 12.6 NNW 13 24 7 13 1010.8 1010.6 0.0
23/10:30am 32.6 33.0 16.4 37 10.2 NNW 9 17 5 9 1011.2 1011.0 0.0
23/10:00am 30.2 32.1 18.6 49 7.5 ESE 6 9 3 5 1011.5 1011.3 0.0
23/09:30am 27.6 29.7 18.9 59 5.6 NNW 6 9 3 5 1011.8 1011.6 0.0
23/09:00am 24.6 26.2 18.3 68 4.0 N 7 13 4 7 1012.1 1011.9 0.0
23/08:30am 22.1 23.6 18.9 82 2.0 NNE 9 13 5 7 1011.9 1011.7 0.0
23/08:00am 21.2 23.5 19.8 92 0.9 ENE 7 11 4 6 1011.8 1011.6 0.0
23/07:30am 19.0 21.9 19.0 100 0.0 NNW 2 7 1 4 1011.5 1011.3 0.0
23/07:00am 18.6 21.7 18.6 100 0.0 CALM 0 0 0 0 1011.3 1011.1 0.0
23/06:30am 18.5 21.1 18.5 100 0.0 NNE 2 6 1 3 1010.9 1010.7 0.0
23/06:00am 18.5 21.5 18.5 100 0.0 CALM 0 0 0 0 1011.0 1010.8 0.0
23/05:30am 18.4 21.4 18.4 100 0.0 CALM 0 0 0 0 1011.0 1010.8 0.0
23/05:00am 18.5 20.4 18.5 100 0.0 N 6 7 3 4 1010.5 1010.3 0.0
23/04:30am 18.5 20.4 18.5 100 0.0 N 6 9 3 5 1010.5 1010.3 0.0
23/04:00am 16.6 18.8 16.6 100 0.0 CALM 0 0 0 0 1010.7 1010.5 0.0
23/03:30am 15.9 17.7 15.6 98 0.2 CALM 0 0 0 0 1010.7 1010.5 0.0
23/03:00am 16.4 18.4 16.1 98 0.2 CALM 0 0 0 0 1010.7 1010.5 0.0
23/02:30am 17.1 18.7 16.8 98 0.2 NW 4 7 2 4 1010.9 1010.7 0.0
23/02:00am 17.6 18.9 17.1 97 0.3 W 6 6 3 3 1011.1 1010.9 0.0
23/01:30am 18.3 20.1 17.5 95 0.5 NNE 4 7 2 4 1011.2 1011.0 0.0
23/01:00am 18.5 21.1 17.5 94 0.6 CALM 0 0 0 0 1011.5 1011.3 0.0
23/12:30am 19.0 21.4 17.1 89 1.2 CALM 0 0 0 0 1011.7 1011.5 0.0
23/12:00am 19.9 22.2 16.7 82 1.9 CALM 0 0 0 0 1012.1 1011.9 0.0
 
Date/Time
EDT
Temp
°C
App
Temp
°C
Dew
Point
Rel
Hum
%
Delta-T
°C
Wind Press
QNH
hPa
Press
MSL
hPa
Rain
since 9 am
mm
Dir
 
Spd
km/h
Gust
km/h
Spd
kts
Gust
kts
22/11:30pm 19.9 20.6 16.2 79 2.2 SSE 7 9 4 5 1012.2 1012.0 0.0
22/11:00pm 20.1 20.7 16.7 81 2.1 S 9 11 5 6 1012.4 1012.2 0.0
22/10:30pm 20.2 20.4 16.8 81 2.1 SSW 11 15 6 8 1012.5 1012.3 0.0
22/10:00pm 20.9 21.6 17.1 79 2.3 SE 9 11 5 6 1012.1 1011.9 0.0
22/09:30pm 21.2 21.2 17.2 78 2.5 SE 13 19 7 10 1012.2 1012.0 0.0
22/09:00pm 21.6 22.3 17.0 75 2.8 SE 9 11 5 6 1011.9 1011.7 0.0
22/08:30pm 22.0 21.8 16.7 72 3.2 ESE 13 20 7 11 1011.6 1011.4 0.0
22/08:00pm 22.8 22.6 16.6 68 3.8 ESE 13 22 7 12 1011.2 1011.0 0.0
22/07:30pm 23.8 22.1 16.3 63 4.6 SE 20 30 11 16 1011.0 1010.8 0.0
22/07:00pm 25.0 23.0 15.6 56 5.7 SE 20 26 11 14 1010.6 1010.4 0.0
22/06:30pm 26.8 25.5 15.8 51 6.7 E 17 20 9 11 1009.9 1009.7 0.0
22/06:00pm 28.0 25.8 15.0 45 7.9 E 20 28 11 15 1009.6 1009.4 0.0
22/05:30pm 29.4 27.6 15.5 43 8.6 E 19 24 10 13 1009.2 1009.0 0.0
22/05:00pm 30.2 27.7 15.1 40 9.3 E 22 32 12 17 1009.3 1009.1 0.0
22/04:30pm 31.2 28.8 14.4 36 10.2 E 20 30 11 16 1009.3 1009.1 0.0
22/04:00pm 32.4 29.2 13.1 31 11.6 E 22 30 12 16 1009.3 1009.1 0.0
22/03:30pm 32.8 30.8 13.9 31 11.5 NE 17 20 9 11 1009.8 1009.6 0.0
22/03:00pm 31.7 29.5 12.0 30 11.6 NNE 15 22 8 12 1010.2 1010.0 0.0
22/02:30pm 31.7 31.2 12.0 30 11.6 S 6 11 3 6 1010.9 1010.7 0.0
22/02:00pm 30.8 30.4 13.1 34 10.6 NNE 7 13 4 7 1011.3 1011.1 0.0
22/01:30pm 29.6 29.3 13.4 37 9.7 N 7 11 4 6 1011.9 1011.7 0.0
22/01:00pm 28.8 29.4 14.2 40 8.8 SE 4 9 2 5 1012.6 1012.4 0.0
22/12:30pm 27.1 26.5 13.4 42 8.1 ESE 9 19 5 10 1013.2 1013.0 0.0
22/12:00pm 26.7 26.2 13.8 45 7.7 NNW 9 19 5 10 1013.8 1013.6 0.0
22/11:30am 25.4 24.2 13.9 49 6.8 S 13 20 7 11 1014.4 1014.2 0.0
22/11:00am 24.4 24.3 13.3 50 6.5 SSE 6 13 3 7 1015.0 1014.8 0.0
22/10:30am 23.3 22.9 14.0 56 5.5 W 9 17 5 9 1015.4 1015.2 0.0
22/10:00am 22.5 22.3 13.6 57 5.2 WSW 7 13 4 7 1015.3 1015.1 0.0
22/09:30am 22.0 23.2 13.9 60 4.7 CALM 0 6 0 3 1015.6 1015.4 0.0
22/09:00am 21.0 20.5 13.9 64 4.1 SE 9 15 5 8 1015.9 1015.7 0.0
22/08:30am 20.7 20.3 14.1 66 3.8 SSE 9 15 5 8 1015.8 1015.6 0.0
22/08:00am 20.4 20.1 14.3 68 3.5 SSE 9 13 5 7 1015.7 1015.5 0.0
22/07:30am 20.1 19.4 14.2 69 3.4 S 11 15 6 8 1015.4 1015.2 0.0
22/07:00am 20.1 19.0 14.2 69 3.4 SSE 13 17 7 9 1015.1 1014.9 0.0
22/06:30am 20.2 19.1 14.3 69 3.4 SSE 13 19 7 10 1014.7 1014.5 0.0
22/06:00am 20.1 19.0 14.2 69 3.4 S 13 19 7 10 1014.1 1013.9 0.0
22/05:30am 20.3 19.3 14.7 70 3.3 S 13 17 7 9 1013.6 1013.4 0.0
22/05:00am 20.3 19.7 14.7 70 3.3 S 11 15 6 8 1013.2 1013.0 0.0
22/04:30am 20.3 19.6 14.4 69 3.4 S 11 17 6 9 1012.9 1012.7 0.0
22/04:00am 20.4 18.9 14.3 68 3.6 SSW 15 20 8 11 1013.0 1012.8 0.0
22/03:30am 20.9 20.4 15.0 69 3.5 S 11 17 6 9 1012.8 1012.6 0.0
22/03:00am 20.9 20.1 15.0 69 3.5 S 13 20 7 11 1012.8 1012.6 0.0
22/02:30am 21.1 20.3 15.2 69 3.5 S 13 19 7 10 1012.8 1012.6 0.0
22/02:00am 21.0 20.3 15.3 70 3.4 S 13 19 7 10 1012.7 1012.5 0.0
22/01:30am 20.9 19.8 15.4 71 3.3 S 15 24 8 13 1012.7 1012.5 0.0
22/01:00am 20.9 19.0 15.2 70 3.4 SSW 19 24 10 13 1012.5 1012.3 0.0
22/12:30am 21.2 19.1 15.1 68 3.6 SSW 20 32 11 17 1012.3 1012.1 0.0
22/12:00am 21.8 19.6 14.9 65 4.1 SSW 20 28 11 15 1012.0 1011.8 0.0
 
Date/Time
EDT
Temp
°C
App
Temp
°C
Dew
Point
Rel
Hum
%
Delta-T
°C
Wind Press
QNH
hPa
Press
MSL
hPa
Rain
since 9 am
mm
Dir
 
Spd
km/h
Gust
km/h
Spd
kts
Gust
kts
21/11:30pm 22.7 20.3 15.3 63 4.4 SSW 22 32 12 17 1011.3 1011.1 0.0
21/11:00pm 23.6 20.5 15.6 61 4.8 S 26 37 14 20 1010.8 1010.6 0.0
21/10:30pm 25.1 22.3 16.3 58 5.4 S 26 39 14 21 1010.4 1010.2 0.0
21/10:00pm 26.3 23.7 16.0 53 6.3 S 24 32 13 17 1009.5 1009.3 0.0
21/09:30pm 28.3 25.1 15.2 44 8.0 S 26 37 14 20 1008.7 1008.5 0.0
21/09:00pm 30.8 27.4 11.2 30 11.4 S 20 30 11 16 1007.6 1007.4 0.0
21/08:30pm 33.1 29.0 7.9 21 14.0 S 19 26 10 14 1006.5 1006.3 0.0
21/08:00pm 33.1 29.2 1.0 13 16.0 WSW 11 15 6 8 1005.3 1005.2 0.0
21/07:30pm 35.5 31.1 0.6 11 17.5 W 13 17 7 9 1004.8 1004.7 0.0
21/07:00pm 37.9 31.7 -0.4 9 19.2 WSW 22 32 12 17 1004.3 1004.2 0.0
21/06:30pm 37.8 35.9 7.7 16 17.1 N 7 9 4 5 1003.7 1003.5 0.0
21/06:00pm 37.5 35.4 8.3 17 16.7 NW 9 22 5 12 1003.2 1003.0 0.0
21/05:30pm 37.2 35.1 8.1 17 16.5 NNW 9 17 5 9 1003.3 1003.1 0.0
21/05:00pm 37.2 33.9 8.1 17 16.6 NW 15 24 8 13 1003.3 1003.1 0.0
21/04:30pm 37.8 33.3 8.6 17 16.8 NNW 22 39 12 21 1003.4 1003.2 0.0
21/04:00pm 36.7 32.4 9.3 19 15.9 NNW 22 37 12 20 1003.5 1003.3 0.0
21/03:30pm 37.9 32.6 6.8 15 17.4 NW 24 43 13 23 1003.8 1003.6 0.0
21/03:00pm 38.6 34.3 9.2 17 17.2 NW 22 35 12 19 1004.1 1003.9 0.0
21/02:30pm 37.8 32.9 8.6 17 16.8 NW 24 43 13 23 1004.7 1004.6 0.0
21/02:10pm 37.2 31.9 9.7 19 16.0 NW 28 50 15 27 1004.7 1004.6 0.0
21/02:00pm 39.2 34.2 9.7 17 17.4 WNW 26 44 14 24 1004.7 1004.6 0.0
21/01:36pm 36.6 30.3 7.6 17 16.3 WNW 30 54 16 29 1004.8 1004.7 0.0
21/01:30pm 38.1 33.5 9.6 18 16.6 NW 24 44 13 24 1004.7 1004.6 0.0
21/01:00pm 36.3 32.0 11.9 23 14.7 NNW 26 43 14 23 1005.1 1005.0 0.0
21/12:30pm 37.0 33.0 11.8 22 15.1 NW 24 39 13 21 1005.7 1005.5 0.0
21/12:01pm 36.4 31.1 11.3 22 14.9 NNW 30 48 16 26 1006.1 1005.9 0.0
21/12:00pm 36.5 30.8 11.3 22 15.0 NNW 32 48 17 26 1006.1 1005.9 0.0
21/11:59am 36.6 31.5 10.7 21 15.3 NNW 28 48 15 26 1006.1 1005.9 0.0

Other Formats:

Comma delimited format used in spreadsheet applications
http://www.bom.gov.au/fwo/IDN60801/IDN60801.95771.axf

JavaScript Object Notation format (JSON) in row-major order
http://www.bom.gov.au/fwo/IDN60801/IDN60801.95771.json